sensor_id;sensor_type;location;lat;lon;timestamp;P1;durP1;ratioP1;P2;durP2;ratioP2
75009;SDS011;63564;46.840;18.336;2023-03-05T00:00:40;18.17;;;6.97;;
75009;SDS011;63564;46.840;18.336;2023-03-05T00:03:41;15.73;;;6.93;;
75009;SDS011;63564;46.840;18.336;2023-03-05T00:06:41;14.20;;;6.00;;
75009;SDS011;63564;46.840;18.336;2023-03-05T00:09:41;16.80;;;7.10;;
75009;SDS011;63564;46.840;18.336;2023-03-05T00:12:42;12.87;;;5.93;;
75009;SDS011;63564;46.840;18.336;2023-03-05T00:15:42;16.77;;;6.67;;
75009;SDS011;63564;46.840;18.336;2023-03-05T00:18:43;15.10;;;6.57;;
75009;SDS011;63564;46.840;18.336;2023-03-05T00:21:44;14.85;;;6.28;;
75009;SDS011;63564;46.840;18.336;2023-03-05T00:24:44;17.57;;;7.27;;
75009;SDS011;63564;46.840;18.336;2023-03-05T00:27:45;20.33;;;7.07;;
75009;SDS011;63564;46.840;18.336;2023-03-05T00:30:45;19.23;;;7.07;;
75009;SDS011;63564;46.840;18.336;2023-03-05T00:33:48;16.23;;;6.53;;
75009;SDS011;63564;46.840;18.336;2023-03-05T00:36:51;16.70;;;7.23;;
75009;SDS011;63564;46.840;18.336;2023-03-05T00:39:51;14.20;;;6.50;;
75009;SDS011;63564;46.840;18.336;2023-03-05T00:42:52;15.57;;;7.00;;
75009;SDS011;63564;46.840;18.336;2023-03-05T00:45:52;14.50;;;6.63;;
75009;SDS011;63564;46.840;18.336;2023-03-05T00:48:53;15.90;;;6.47;;
75009;SDS011;63564;46.840;18.336;2023-03-05T00:51:54;13.27;;;5.45;;
75009;SDS011;63564;46.840;18.336;2023-03-05T00:54:54;16.67;;;6.37;;
75009;SDS011;63564;46.840;18.336;2023-03-05T00:57:55;14.27;;;6.23;;
75009;SDS011;63564;46.840;18.336;2023-03-05T01:00:56;13.75;;;6.47;;
75009;SDS011;63564;46.840;18.336;2023-03-05T01:03:58;15.10;;;5.90;;
75009;SDS011;63564;46.840;18.336;2023-03-05T01:07:00;13.95;;;6.28;;
75009;SDS011;63564;46.840;18.336;2023-03-05T01:10:00;16.53;;;6.23;;
75009;SDS011;63564;46.840;18.336;2023-03-05T01:13:00;14.57;;;6.47;;
75009;SDS011;63564;46.840;18.336;2023-03-05T01:16:01;14.47;;;6.37;;
75009;SDS011;63564;46.840;18.336;2023-03-05T01:19:02;15.10;;;5.90;;
75009;SDS011;63564;46.840;18.336;2023-03-05T01:22:03;15.70;;;6.37;;
75009;SDS011;63564;46.840;18.336;2023-03-05T01:25:03;10.02;;;3.75;;
75009;SDS011;63564;46.840;18.336;2023-03-05T01:28:04;9.67;;;4.00;;
75009;SDS011;63564;46.840;18.336;2023-03-05T01:31:08;8.80;;;3.63;;
75009;SDS011;63564;46.840;18.336;2023-03-05T01:34:10;12.63;;;6.07;;
75009;SDS011;63564;46.840;18.336;2023-03-05T01:37:10;9.20;;;3.13;;
75009;SDS011;63564;46.840;18.336;2023-03-05T01:40:11;13.07;;;3.77;;
75009;SDS011;63564;46.840;18.336;2023-03-05T01:46:42;12.30;;;5.43;;
75009;SDS011;63564;46.840;18.336;2023-03-05T01:49:43;8.10;;;3.65;;
75009;SDS011;63564;46.840;18.336;2023-03-05T01:52:51;12.87;;;5.17;;
75009;SDS011;63564;46.840;18.336;2023-03-05T01:55:57;10.77;;;3.88;;
75009;SDS011;63564;46.840;18.336;2023-03-05T01:58:57;9.55;;;4.22;;
75009;SDS011;63564;46.840;18.336;2023-03-05T02:02:02;13.07;;;5.07;;
75009;SDS011;63564;46.840;18.336;2023-03-05T02:05:15;12.05;;;5.20;;
75009;SDS011;63564;46.840;18.336;2023-03-05T02:08:26;11.82;;;5.20;;
75009;SDS011;63564;46.840;18.336;2023-03-05T02:11:26;12.93;;;6.03;;
75009;SDS011;63564;46.840;18.336;2023-03-05T02:14:27;12.10;;;5.53;;
75009;SDS011;63564;46.840;18.336;2023-03-05T02:17:27;14.77;;;5.13;;
75009;SDS011;63564;46.840;18.336;2023-03-05T02:20:29;14.10;;;5.30;;
75009;SDS011;63564;46.840;18.336;2023-03-05T02:23:41;10.80;;;4.57;;
75009;SDS011;63564;46.840;18.336;2023-03-05T02:26:42;12.73;;;4.77;;
75009;SDS011;63564;46.840;18.336;2023-03-05T02:29:44;13.15;;;5.05;;
75009;SDS011;63564;46.840;18.336;2023-03-05T02:32:45;12.10;;;4.70;;
75009;SDS011;63564;46.840;18.336;2023-03-05T02:35:45;10.95;;;4.22;;
75009;SDS011;63564;46.840;18.336;2023-03-05T02:38:46;13.13;;;5.13;;
75009;SDS011;63564;46.840;18.336;2023-03-05T02:41:47;11.60;;;4.10;;
75009;SDS011;63564;46.840;18.336;2023-03-05T02:44:47;11.00;;;4.47;;
75009;SDS011;63564;46.840;18.336;2023-03-05T02:47:47;10.93;;;4.78;;
75009;SDS011;63564;46.840;18.336;2023-03-05T02:50:48;11.85;;;4.80;;
75009;SDS011;63564;46.840;18.336;2023-03-05T02:53:48;6.73;;;2.73;;
75009;SDS011;63564;46.840;18.336;2023-03-05T02:56:49;6.70;;;2.33;;
75009;SDS011;63564;46.840;18.336;2023-03-05T02:59:49;8.97;;;3.20;;
75009;SDS011;63564;46.840;18.336;2023-03-05T03:02:50;8.35;;;3.97;;
75009;SDS011;63564;46.840;18.336;2023-03-05T03:05:50;8.68;;;4.05;;
75009;SDS011;63564;46.840;18.336;2023-03-05T03:08:51;5.70;;;2.60;;
75009;SDS011;63564;46.840;18.336;2023-03-05T03:11:51;10.90;;;4.93;;
75009;SDS011;63564;46.840;18.336;2023-03-05T03:14:52;10.07;;;4.33;;
75009;SDS011;63564;46.840;18.336;2023-03-05T03:17:53;13.65;;;5.03;;
75009;SDS011;63564;46.840;18.336;2023-03-05T03:20:53;15.27;;;6.07;;
75009;SDS011;63564;46.840;18.336;2023-03-05T03:23:54;6.80;;;3.38;;
75009;SDS011;63564;46.840;18.336;2023-03-05T03:26:54;10.97;;;4.60;;
75009;SDS011;63564;46.840;18.336;2023-03-05T03:29:55;10.03;;;4.23;;
75009;SDS011;63564;46.840;18.336;2023-03-05T03:32:55;14.77;;;5.60;;
75009;SDS011;63564;46.840;18.336;2023-03-05T03:35:56;13.50;;;5.38;;
75009;SDS011;63564;46.840;18.336;2023-03-05T03:38:57;17.30;;;5.93;;
75009;SDS011;63564;46.840;18.336;2023-03-05T03:41:57;10.30;;;4.47;;
75009;SDS011;63564;46.840;18.336;2023-03-05T03:44:58;6.93;;;3.43;;
75009;SDS011;63564;46.840;18.336;2023-03-05T03:47:59;16.75;;;6.57;;
75009;SDS011;63564;46.840;18.336;2023-03-05T03:51:02;12.80;;;4.47;;
75009;SDS011;63564;46.840;18.336;2023-03-05T03:54:04;14.40;;;5.72;;
75009;SDS011;63564;46.840;18.336;2023-03-05T03:57:04;14.97;;;5.77;;
75009;SDS011;63564;46.840;18.336;2023-03-05T04:00:05;13.73;;;5.60;;
75009;SDS011;63564;46.840;18.336;2023-03-05T04:03:06;10.57;;;4.25;;
75009;SDS011;63564;46.840;18.336;2023-03-05T04:06:07;12.82;;;5.18;;
75009;SDS011;63564;46.840;18.336;2023-03-05T04:09:08;11.17;;;4.50;;
75009;SDS011;63564;46.840;18.336;2023-03-05T04:12:08;9.93;;;4.50;;
75009;SDS011;63564;46.840;18.336;2023-03-05T04:15:09;13.05;;;5.22;;
75009;SDS011;63564;46.840;18.336;2023-03-05T04:18:10;9.90;;;4.27;;
75009;SDS011;63564;46.840;18.336;2023-03-05T04:21:10;14.67;;;5.20;;
75009;SDS011;63564;46.840;18.336;2023-03-05T04:24:11;10.60;;;4.25;;
75009;SDS011;63564;46.840;18.336;2023-03-05T04:27:11;12.20;;;4.90;;
75009;SDS011;63564;46.840;18.336;2023-03-05T04:30:12;13.37;;;4.70;;
75009;SDS011;63564;46.840;18.336;2023-03-05T04:33:16;8.52;;;3.50;;
75009;SDS011;63564;46.840;18.336;2023-03-05T04:36:17;12.38;;;4.72;;
75009;SDS011;63564;46.840;18.336;2023-03-05T04:39:17;12.90;;;4.23;;
75009;SDS011;63564;46.840;18.336;2023-03-05T04:42:19;11.80;;;4.43;;
75009;SDS011;63564;46.840;18.336;2023-03-05T04:45:20;14.75;;;5.25;;
75009;SDS011;63564;46.840;18.336;2023-03-05T04:48:20;9.27;;;3.97;;
75009;SDS011;63564;46.840;18.336;2023-03-05T04:51:21;12.37;;;5.33;;
75009;SDS011;63564;46.840;18.336;2023-03-05T04:54:21;5.67;;;2.37;;
75009;SDS011;63564;46.840;18.336;2023-03-05T04:57:23;8.95;;;3.35;;
75009;SDS011;63564;46.840;18.336;2023-03-05T05:00:23;8.87;;;3.73;;
75009;SDS011;63564;46.840;18.336;2023-03-05T05:03:24;11.98;;;4.50;;
75009;SDS011;63564;46.840;18.336;2023-03-05T05:06:24;11.60;;;4.90;;
75009;SDS011;63564;46.840;18.336;2023-03-05T05:09:25;10.20;;;4.27;;
75009;SDS011;63564;46.840;18.336;2023-03-05T05:12:28;7.57;;;3.17;;
75009;SDS011;63564;46.840;18.336;2023-03-05T05:15:29;11.73;;;4.45;;
75009;SDS011;63564;46.840;18.336;2023-03-05T05:18:31;12.35;;;5.30;;
75009;SDS011;63564;46.840;18.336;2023-03-05T05:21:31;11.80;;;4.60;;
75009;SDS011;63564;46.840;18.336;2023-03-05T05:24:32;9.07;;;3.07;;
75009;SDS011;63564;46.840;18.336;2023-03-05T05:27:32;12.40;;;4.93;;
75009;SDS011;63564;46.840;18.336;2023-03-05T05:30:33;13.63;;;5.80;;
75009;SDS011;63564;46.840;18.336;2023-03-05T05:33:34;15.40;;;5.87;;
75009;SDS011;63564;46.840;18.336;2023-03-05T05:36:34;13.38;;;5.05;;
75009;SDS011;63564;46.840;18.336;2023-03-05T05:39:35;15.33;;;5.27;;
75009;SDS011;63564;46.840;18.336;2023-03-05T05:42:35;15.27;;;6.47;;
75009;SDS011;63564;46.840;18.336;2023-03-05T05:45:36;13.13;;;4.65;;
75009;SDS011;63564;46.840;18.336;2023-03-05T05:48:37;12.95;;;5.47;;
75009;SDS011;63564;46.840;18.336;2023-03-05T05:51:37;10.70;;;4.77;;
75009;SDS011;63564;46.840;18.336;2023-03-05T05:54:38;12.75;;;4.82;;
75009;SDS011;63564;46.840;18.336;2023-03-05T05:57:38;11.45;;;4.45;;
75009;SDS011;63564;46.840;18.336;2023-03-05T06:00:40;16.52;;;6.28;;
75009;SDS011;63564;46.840;18.336;2023-03-05T06:03:40;16.77;;;6.38;;
75009;SDS011;63564;46.840;18.336;2023-03-05T06:06:40;14.70;;;5.60;;
75009;SDS011;63564;46.840;18.336;2023-03-05T06:09:41;15.97;;;6.13;;
75009;SDS011;63564;46.840;18.336;2023-03-05T06:12:41;14.80;;;6.67;;
75009;SDS011;63564;46.840;18.336;2023-03-05T06:15:42;14.30;;;5.90;;
75009;SDS011;63564;46.840;18.336;2023-03-05T06:18:42;13.47;;;6.10;;
75009;SDS011;63564;46.840;18.336;2023-03-05T06:21:42;16.43;;;6.70;;
75009;SDS011;63564;46.840;18.336;2023-03-05T06:24:43;14.38;;;6.10;;
75009;SDS011;63564;46.840;18.336;2023-03-05T06:27:43;16.13;;;6.63;;
75009;SDS011;63564;46.840;18.336;2023-03-05T06:30:44;13.73;;;4.77;;
75009;SDS011;63564;46.840;18.336;2023-03-05T06:33:44;15.13;;;5.63;;
75009;SDS011;63564;46.840;18.336;2023-03-05T06:36:44;14.10;;;5.93;;
75009;SDS011;63564;46.840;18.336;2023-03-05T06:39:45;16.70;;;5.87;;
75009;SDS011;63564;46.840;18.336;2023-03-05T06:42:45;17.38;;;6.93;;
75009;SDS011;63564;46.840;18.336;2023-03-05T06:45:46;14.35;;;6.18;;
75009;SDS011;63564;46.840;18.336;2023-03-05T06:48:46;15.37;;;6.67;;
75009;SDS011;63564;46.840;18.336;2023-03-05T06:51:47;13.77;;;6.13;;
75009;SDS011;63564;46.840;18.336;2023-03-05T06:54:48;14.07;;;6.20;;
75009;SDS011;63564;46.840;18.336;2023-03-05T06:57:48;12.20;;;4.90;;
75009;SDS011;63564;46.840;18.336;2023-03-05T07:00:49;14.70;;;6.07;;
75009;SDS011;63564;46.840;18.336;2023-03-05T07:03:49;13.77;;;6.40;;
75009;SDS011;63564;46.840;18.336;2023-03-05T07:06:51;13.55;;;6.70;;
75009;SDS011;63564;46.840;18.336;2023-03-05T07:09:52;14.83;;;6.27;;
75009;SDS011;63564;46.840;18.336;2023-03-05T07:12:52;14.02;;;5.82;;
75009;SDS011;63564;46.840;18.336;2023-03-05T07:15:53;14.50;;;6.30;;
75009;SDS011;63564;46.840;18.336;2023-03-05T07:18:55;17.10;;;7.03;;
75009;SDS011;63564;46.840;18.336;2023-03-05T07:21:56;14.02;;;6.38;;
75009;SDS011;63564;46.840;18.336;2023-03-05T07:24:56;15.07;;;6.00;;
75009;SDS011;63564;46.840;18.336;2023-03-05T07:27:57;15.93;;;6.60;;
75009;SDS011;63564;46.840;18.336;2023-03-05T07:31:01;10.63;;;4.30;;
75009;SDS011;63564;46.840;18.336;2023-03-05T07:34:03;12.45;;;5.45;;
75009;SDS011;63564;46.840;18.336;2023-03-05T07:37:05;15.73;;;6.80;;
75009;SDS011;63564;46.840;18.336;2023-03-05T07:40:06;14.88;;;6.53;;
75009;SDS011;63564;46.840;18.336;2023-03-05T07:43:06;10.38;;;3.60;;
75009;SDS011;63564;46.840;18.336;2023-03-05T07:46:08;12.07;;;4.80;;
75009;SDS011;63564;46.840;18.336;2023-03-05T07:49:10;8.90;;;4.20;;
75009;SDS011;63564;46.840;18.336;2023-03-05T07:52:10;5.23;;;2.50;;
75009;SDS011;63564;46.840;18.336;2023-03-05T07:55:11;9.20;;;4.03;;
75009;SDS011;63564;46.840;18.336;2023-03-05T07:58:12;7.83;;;3.90;;
75009;SDS011;63564;46.840;18.336;2023-03-05T08:01:13;10.02;;;4.07;;
75009;SDS011;63564;46.840;18.336;2023-03-05T08:04:13;8.10;;;3.58;;
75009;SDS011;63564;46.840;18.336;2023-03-05T08:07:14;11.27;;;4.68;;
75009;SDS011;63564;46.840;18.336;2023-03-05T08:10:15;8.87;;;4.10;;
75009;SDS011;63564;46.840;18.336;2023-03-05T08:13:16;7.75;;;3.67;;
75009;SDS011;63564;46.840;18.336;2023-03-05T08:16:17;10.73;;;3.93;;
75009;SDS011;63564;46.840;18.336;2023-03-05T08:19:19;10.52;;;4.47;;
75009;SDS011;63564;46.840;18.336;2023-03-05T08:22:20;12.48;;;5.13;;
75009;SDS011;63564;46.840;18.336;2023-03-05T08:25:20;9.67;;;3.70;;
75009;SDS011;63564;46.840;18.336;2023-03-05T08:28:21;10.77;;;4.03;;
75009;SDS011;63564;46.840;18.336;2023-03-05T08:31:23;11.55;;;5.05;;
75009;SDS011;63564;46.840;18.336;2023-03-05T08:34:25;6.85;;;3.35;;
75009;SDS011;63564;46.840;18.336;2023-03-05T08:37:26;12.43;;;4.90;;
75009;SDS011;63564;46.840;18.336;2023-03-05T08:40:26;13.87;;;5.57;;
75009;SDS011;63564;46.840;18.336;2023-03-05T08:43:26;11.13;;;4.80;;
75009;SDS011;63564;46.840;18.336;2023-03-05T08:46:27;6.15;;;2.65;;
75009;SDS011;63564;46.840;18.336;2023-03-05T08:49:28;9.43;;;4.05;;
75009;SDS011;63564;46.840;18.336;2023-03-05T08:52:28;11.40;;;3.97;;
75009;SDS011;63564;46.840;18.336;2023-03-05T08:55:29;9.35;;;4.72;;
75009;SDS011;63564;46.840;18.336;2023-03-05T08:58:29;11.93;;;5.90;;
75009;SDS011;63564;46.840;18.336;2023-03-05T09:01:30;12.17;;;4.70;;
75009;SDS011;63564;46.840;18.336;2023-03-05T09:04:31;11.85;;;5.28;;
75009;SDS011;63564;46.840;18.336;2023-03-05T09:07:31;10.77;;;5.20;;
75009;SDS011;63564;46.840;18.336;2023-03-05T09:10:32;10.30;;;5.07;;
75009;SDS011;63564;46.840;18.336;2023-03-05T09:13:32;11.03;;;5.13;;
75009;SDS011;63564;46.840;18.336;2023-03-05T09:16:33;8.50;;;3.85;;
75009;SDS011;63564;46.840;18.336;2023-03-05T09:19:35;8.13;;;3.50;;
75009;SDS011;63564;46.840;18.336;2023-03-05T09:22:35;6.67;;;3.10;;
75009;SDS011;63564;46.840;18.336;2023-03-05T09:25:35;8.13;;;3.00;;
75009;SDS011;63564;46.840;18.336;2023-03-05T09:28:39;7.32;;;3.70;;
75009;SDS011;63564;46.840;18.336;2023-03-05T09:31:40;10.93;;;4.83;;
75009;SDS011;63564;46.840;18.336;2023-03-05T09:34:42;9.13;;;3.80;;
75009;SDS011;63564;46.840;18.336;2023-03-05T09:37:42;8.77;;;4.03;;
75009;SDS011;63564;46.840;18.336;2023-03-05T09:54:00;9.63;;;4.15;;
75009;SDS011;63564;46.840;18.336;2023-03-05T09:57:17;7.07;;;3.50;;
75009;SDS011;63564;46.840;18.336;2023-03-05T10:00:33;7.10;;;3.15;;
75009;SDS011;63564;46.840;18.336;2023-03-05T10:03:43;7.97;;;3.50;;
75009;SDS011;63564;46.840;18.336;2023-03-05T10:07:00;7.72;;;3.17;;
75009;SDS011;63564;46.840;18.336;2023-03-05T10:10:42;6.65;;;3.25;;
75009;SDS011;63564;46.840;18.336;2023-03-05T10:13:42;5.97;;;2.83;;
75009;SDS011;63564;46.840;18.336;2023-03-05T10:33:10;7.82;;;3.50;;
75009;SDS011;63564;46.840;18.336;2023-03-05T10:43:33;6.85;;;2.97;;
75009;SDS011;63564;46.840;18.336;2023-03-05T10:46:38;8.40;;;2.97;;
75009;SDS011;63564;46.840;18.336;2023-03-05T10:49:41;7.90;;;3.20;;
75009;SDS011;63564;46.840;18.336;2023-03-05T10:52:53;7.25;;;3.10;;
75009;SDS011;63564;46.840;18.336;2023-03-05T10:56:14;7.23;;;3.23;;
75009;SDS011;63564;46.840;18.336;2023-03-05T10:59:15;8.75;;;3.67;;
75009;SDS011;63564;46.840;18.336;2023-03-05T11:02:16;6.23;;;3.10;;
75009;SDS011;63564;46.840;18.336;2023-03-05T11:06:02;5.18;;;2.13;;
75009;SDS011;63564;46.840;18.336;2023-03-05T11:08:38;4.50;;;2.42;;
75009;SDS011;63564;46.840;18.336;2023-03-05T11:11:39;5.93;;;2.97;;
75009;SDS011;63564;46.840;18.336;2023-03-05T11:14:44;7.83;;;3.37;;
75009;SDS011;63564;46.840;18.336;2023-03-05T11:17:47;7.47;;;3.30;;
75009;SDS011;63564;46.840;18.336;2023-03-05T11:21:08;6.40;;;3.00;;
75009;SDS011;63564;46.840;18.336;2023-03-05T11:24:19;6.53;;;3.13;;
75009;SDS011;63564;46.840;18.336;2023-03-05T11:27:21;8.07;;;3.57;;
75009;SDS011;63564;46.840;18.336;2023-03-05T11:30:35;6.90;;;3.42;;
75009;SDS011;63564;46.840;18.336;2023-03-05T11:33:36;7.53;;;3.75;;
75009;SDS011;63564;46.840;18.336;2023-03-05T11:36:38;6.78;;;2.63;;
75009;SDS011;63564;46.840;18.336;2023-03-05T11:39:41;5.75;;;3.13;;
75009;SDS011;63564;46.840;18.336;2023-03-05T11:42:42;5.73;;;2.40;;
75009;SDS011;63564;46.840;18.336;2023-03-05T11:45:43;9.43;;;4.15;;
75009;SDS011;63564;46.840;18.336;2023-03-05T11:48:45;7.95;;;3.70;;
75009;SDS011;63564;46.840;18.336;2023-03-05T11:55:17;7.18;;;3.30;;
75009;SDS011;63564;46.840;18.336;2023-03-05T11:58:34;8.50;;;3.92;;
75009;SDS011;63564;46.840;18.336;2023-03-05T12:01:37;9.15;;;4.43;;
75009;SDS011;63564;46.840;18.336;2023-03-05T12:04:42;7.80;;;3.50;;
75009;SDS011;63564;46.840;18.336;2023-03-05T12:07:45;6.30;;;3.37;;
75009;SDS011;63564;46.840;18.336;2023-03-05T12:10:50;5.90;;;2.88;;
75009;SDS011;63564;46.840;18.336;2023-03-05T12:13:53;5.93;;;2.83;;
75009;SDS011;63564;46.840;18.336;2023-03-05T12:17:10;6.75;;;3.28;;
75009;SDS011;63564;46.840;18.336;2023-03-05T12:20:18;5.55;;;2.40;;
75009;SDS011;63564;46.840;18.336;2023-03-05T12:23:23;6.70;;;3.10;;
75009;SDS011;63564;46.840;18.336;2023-03-05T12:29:52;6.70;;;3.27;;
75009;SDS011;63564;46.840;18.336;2023-03-05T12:32:53;6.18;;;2.58;;
75009;SDS011;63564;46.840;18.336;2023-03-05T12:36:16;7.53;;;3.55;;
75009;SDS011;63564;46.840;18.336;2023-03-05T12:42:56;8.13;;;4.10;;
75009;SDS011;63564;46.840;18.336;2023-03-05T12:52:25;6.07;;;2.83;;
75009;SDS011;63564;46.840;18.336;2023-03-05T12:56:03;9.40;;;3.30;;
75009;SDS011;63564;46.840;18.336;2023-03-05T12:58:58;8.40;;;3.97;;
75009;SDS011;63564;46.840;18.336;2023-03-05T13:02:02;9.20;;;4.28;;
75009;SDS011;63564;46.840;18.336;2023-03-05T13:05:20;8.75;;;4.03;;
75009;SDS011;63564;46.840;18.336;2023-03-05T13:08:26;8.23;;;3.58;;
75009;SDS011;63564;46.840;18.336;2023-03-05T13:11:35;7.78;;;3.95;;
75009;SDS011;63564;46.840;18.336;2023-03-05T13:14:48;10.13;;;5.20;;
75009;SDS011;63564;46.840;18.336;2023-03-05T13:18:00;8.43;;;3.65;;
75009;SDS011;63564;46.840;18.336;2023-03-05T13:21:06;6.72;;;3.58;;
75009;SDS011;63564;46.840;18.336;2023-03-05T13:24:15;8.93;;;3.90;;
75009;SDS011;63564;46.840;18.336;2023-03-05T13:27:26;12.50;;;5.85;;
75009;SDS011;63564;46.840;18.336;2023-03-05T13:30:29;13.57;;;6.90;;
75009;SDS011;63564;46.840;18.336;2023-03-05T13:33:31;9.38;;;3.75;;
75009;SDS011;63564;46.840;18.336;2023-03-05T13:36:33;8.02;;;3.85;;
75009;SDS011;63564;46.840;18.336;2023-03-05T13:39:36;8.70;;;4.40;;
75009;SDS011;63564;46.840;18.336;2023-03-05T13:42:46;10.52;;;4.28;;
75009;SDS011;63564;46.840;18.336;2023-03-05T13:45:52;10.27;;;4.68;;
75009;SDS011;63564;46.840;18.336;2023-03-05T13:48:54;11.48;;;6.63;;
75009;SDS011;63564;46.840;18.336;2023-03-05T13:51:56;8.27;;;3.63;;
75009;SDS011;63564;46.840;18.336;2023-03-05T13:54:59;7.05;;;3.25;;
75009;SDS011;63564;46.840;18.336;2023-03-05T13:58:01;8.98;;;4.18;;
75009;SDS011;63564;46.840;18.336;2023-03-05T14:01:03;10.57;;;3.60;;
75009;SDS011;63564;46.840;18.336;2023-03-05T14:10:40;10.90;;;5.07;;
75009;SDS011;63564;46.840;18.336;2023-03-05T14:13:42;9.67;;;4.07;;
75009;SDS011;63564;46.840;18.336;2023-03-05T14:16:43;9.63;;;5.03;;
75009;SDS011;63564;46.840;18.336;2023-03-05T14:19:44;9.27;;;3.88;;
75009;SDS011;63564;46.840;18.336;2023-03-05T14:22:45;8.93;;;3.70;;
75009;SDS011;63564;46.840;18.336;2023-03-05T14:25:47;7.90;;;3.25;;
75009;SDS011;63564;46.840;18.336;2023-03-05T14:28:52;8.75;;;3.42;;
75009;SDS011;63564;46.840;18.336;2023-03-05T14:35:03;8.98;;;3.58;;
75009;SDS011;63564;46.840;18.336;2023-03-05T14:38:05;8.65;;;4.20;;
75009;SDS011;63564;46.840;18.336;2023-03-05T14:44:33;8.23;;;3.15;;
75009;SDS011;63564;46.840;18.336;2023-03-05T14:47:34;14.47;;;6.77;;
75009;SDS011;63564;46.840;18.336;2023-03-05T14:50:40;9.80;;;5.18;;
75009;SDS011;63564;46.840;18.336;2023-03-05T14:53:53;10.40;;;5.00;;
75009;SDS011;63564;46.840;18.336;2023-03-05T14:56:57;12.50;;;5.82;;
75009;SDS011;63564;46.840;18.336;2023-03-05T14:59:57;9.25;;;3.75;;
75009;SDS011;63564;46.840;18.336;2023-03-05T15:02:59;11.65;;;5.70;;
75009;SDS011;63564;46.840;18.336;2023-03-05T15:05:59;11.37;;;4.53;;
75009;SDS011;63564;46.840;18.336;2023-03-05T15:09:01;9.75;;;3.83;;
75009;SDS011;63564;46.840;18.336;2023-03-05T15:12:03;6.10;;;3.00;;
75009;SDS011;63564;46.840;18.336;2023-03-05T15:15:04;10.90;;;4.10;;
75009;SDS011;63564;46.840;18.336;2023-03-05T15:18:06;9.50;;;4.78;;
75009;SDS011;63564;46.840;18.336;2023-03-05T15:21:09;14.40;;;5.17;;
75009;SDS011;63564;46.840;18.336;2023-03-05T15:24:10;10.80;;;5.07;;
75009;SDS011;63564;46.840;18.336;2023-03-05T15:27:13;11.85;;;4.57;;
75009;SDS011;63564;46.840;18.336;2023-03-05T15:30:20;7.90;;;3.13;;
75009;SDS011;63564;46.840;18.336;2023-03-05T15:33:28;7.35;;;3.38;;
75009;SDS011;63564;46.840;18.336;2023-03-05T15:36:29;16.33;;;5.60;;
75009;SDS011;63564;46.840;18.336;2023-03-05T15:39:30;7.35;;;3.72;;
75009;SDS011;63564;46.840;18.336;2023-03-05T15:42:31;7.53;;;3.13;;
75009;SDS011;63564;46.840;18.336;2023-03-05T15:45:32;13.63;;;5.95;;
75009;SDS011;63564;46.840;18.336;2023-03-05T15:48:33;12.93;;;6.05;;
75009;SDS011;63564;46.840;18.336;2023-03-05T15:51:34;12.48;;;5.43;;
75009;SDS011;63564;46.840;18.336;2023-03-05T15:54:35;10.70;;;4.80;;
75009;SDS011;63564;46.840;18.336;2023-03-05T15:57:37;10.80;;;4.47;;
75009;SDS011;63564;46.840;18.336;2023-03-05T16:00:42;7.10;;;2.95;;
75009;SDS011;63564;46.840;18.336;2023-03-05T16:03:43;11.73;;;6.15;;
75009;SDS011;63564;46.840;18.336;2023-03-05T16:06:46;17.10;;;9.10;;
75009;SDS011;63564;46.840;18.336;2023-03-05T16:09:48;14.55;;;6.13;;
75009;SDS011;63564;46.840;18.336;2023-03-05T16:12:53;13.90;;;6.20;;
75009;SDS011;63564;46.840;18.336;2023-03-05T16:15:58;14.13;;;5.80;;
75009;SDS011;63564;46.840;18.336;2023-03-05T16:19:01;16.60;;;7.00;;
75009;SDS011;63564;46.840;18.336;2023-03-05T16:22:06;15.93;;;6.50;;
75009;SDS011;63564;46.840;18.336;2023-03-05T16:25:08;15.40;;;6.50;;
75009;SDS011;63564;46.840;18.336;2023-03-05T16:28:09;15.67;;;7.03;;
75009;SDS011;63564;46.840;18.336;2023-03-05T16:31:10;15.15;;;6.45;;
75009;SDS011;63564;46.840;18.336;2023-03-05T16:34:12;14.38;;;6.45;;
75009;SDS011;63564;46.840;18.336;2023-03-05T16:37:19;19.45;;;7.43;;
75009;SDS011;63564;46.840;18.336;2023-03-05T16:40:21;19.35;;;8.75;;
75009;SDS011;63564;46.840;18.336;2023-03-05T16:43:22;17.47;;;7.53;;
75009;SDS011;63564;46.840;18.336;2023-03-05T16:46:24;24.65;;;10.52;;
75009;SDS011;63564;46.840;18.336;2023-03-05T16:49:28;15.65;;;6.53;;
75009;SDS011;63564;46.840;18.336;2023-03-05T16:52:29;15.83;;;6.57;;
75009;SDS011;63564;46.840;18.336;2023-03-05T16:55:32;16.98;;;7.47;;
75009;SDS011;63564;46.840;18.336;2023-03-05T16:58:33;14.98;;;7.22;;
75009;SDS011;63564;46.840;18.336;2023-03-05T17:01:35;16.25;;;6.63;;
75009;SDS011;63564;46.840;18.336;2023-03-05T17:04:38;14.17;;;6.70;;
75009;SDS011;63564;46.840;18.336;2023-03-05T17:07:40;15.02;;;7.57;;
75009;SDS011;63564;46.840;18.336;2023-03-05T17:10:41;16.13;;;7.63;;
75009;SDS011;63564;46.840;18.336;2023-03-05T17:13:43;17.77;;;7.95;;
75009;SDS011;63564;46.840;18.336;2023-03-05T17:16:44;17.27;;;7.73;;
75009;SDS011;63564;46.840;18.336;2023-03-05T17:19:45;20.58;;;9.40;;
75009;SDS011;63564;46.840;18.336;2023-03-05T17:22:47;21.95;;;10.75;;
75009;SDS011;63564;46.840;18.336;2023-03-05T17:25:49;20.55;;;8.82;;
75009;SDS011;63564;46.840;18.336;2023-03-05T17:28:50;18.98;;;8.35;;
75009;SDS011;63564;46.840;18.336;2023-03-05T17:31:51;17.37;;;7.53;;
75009;SDS011;63564;46.840;18.336;2023-03-05T17:34:53;16.13;;;8.20;;
75009;SDS011;63564;46.840;18.336;2023-03-05T17:37:55;20.75;;;8.90;;
75009;SDS011;63564;46.840;18.336;2023-03-05T17:40:56;16.83;;;8.30;;
75009;SDS011;63564;46.840;18.336;2023-03-05T17:43:57;18.88;;;9.05;;
75009;SDS011;63564;46.840;18.336;2023-03-05T17:46:58;17.98;;;8.55;;
75009;SDS011;63564;46.840;18.336;2023-03-05T17:50:00;19.50;;;9.50;;
75009;SDS011;63564;46.840;18.336;2023-03-05T17:53:03;19.87;;;8.90;;
75009;SDS011;63564;46.840;18.336;2023-03-05T17:56:07;20.65;;;9.45;;
75009;SDS011;63564;46.840;18.336;2023-03-05T17:59:11;19.50;;;9.18;;
75009;SDS011;63564;46.840;18.336;2023-03-05T18:02:14;20.73;;;9.55;;
75009;SDS011;63564;46.840;18.336;2023-03-05T18:05:16;22.27;;;9.80;;
75009;SDS011;63564;46.840;18.336;2023-03-05T18:08:18;21.45;;;10.45;;
75009;SDS011;63564;46.840;18.336;2023-03-05T18:11:19;23.10;;;11.38;;
75009;SDS011;63564;46.840;18.336;2023-03-05T18:14:20;21.50;;;10.60;;
75009;SDS011;63564;46.840;18.336;2023-03-05T18:17:20;22.03;;;10.27;;
75009;SDS011;63564;46.840;18.336;2023-03-05T18:23:28;21.50;;;9.25;;
75009;SDS011;63564;46.840;18.336;2023-03-05T18:26:29;21.10;;;10.43;;
75009;SDS011;63564;46.840;18.336;2023-03-05T18:29:30;25.33;;;11.25;;
75009;SDS011;63564;46.840;18.336;2023-03-05T18:32:31;21.73;;;9.97;;
75009;SDS011;63564;46.840;18.336;2023-03-05T18:35:32;26.67;;;11.13;;
75009;SDS011;63564;46.840;18.336;2023-03-05T18:38:34;21.67;;;9.90;;
75009;SDS011;63564;46.840;18.336;2023-03-05T18:41:37;23.48;;;10.98;;
75009;SDS011;63564;46.840;18.336;2023-03-05T18:44:41;22.07;;;10.43;;
75009;SDS011;63564;46.840;18.336;2023-03-05T18:47:42;25.33;;;10.60;;
75009;SDS011;63564;46.840;18.336;2023-03-05T18:50:47;23.15;;;10.40;;
75009;SDS011;63564;46.840;18.336;2023-03-05T18:53:52;21.58;;;9.57;;
75009;SDS011;63564;46.840;18.336;2023-03-05T18:56:55;19.97;;;9.23;;
75009;SDS011;63564;46.840;18.336;2023-03-05T18:59:57;22.33;;;10.30;;
75009;SDS011;63564;46.840;18.336;2023-03-05T19:02:58;21.13;;;10.20;;
75009;SDS011;63564;46.840;18.336;2023-03-05T19:05:59;22.75;;;10.80;;